sensor_id;sensor_type;location;lat;lon;timestamp;pressure;altitude;pressure_sealevel;temperature;humidity
74230;BME280;62589;12.568;99.958;2022-12-24T00:00:32;101014.75;;;30.02;54.27
74230;BME280;62589;12.568;99.958;2022-12-24T00:02:59;101025.47;;;30.03;54.04
74230;BME280;62589;12.568;99.958;2022-12-24T00:05:25;101015.56;;;30.02;54.38
74230;BME280;62589;12.568;99.958;2022-12-24T00:07:51;101023.94;;;30.06;54.19
74230;BME280;62589;12.568;99.958;2022-12-24T00:10:18;101029.84;;;30.04;54.24
74230;BME280;62589;12.568;99.958;2022-12-24T00:12:44;101032.69;;;30.08;54.01
74230;BME280;62589;12.568;99.958;2022-12-24T00:15:11;101035.09;;;30.10;54.44
74230;BME280;62589;12.568;99.958;2022-12-24T00:17:37;101038.69;;;30.10;54.32
74230;BME280;62589;12.568;99.958;2022-12-24T00:20:04;101044.66;;;30.12;54.31
74230;BME280;62589;12.568;99.958;2022-12-24T00:22:30;101047.44;;;30.12;54.61
74230;BME280;62589;12.568;99.958;2022-12-24T00:24:57;101047.94;;;30.18;54.59
74230;BME280;62589;12.568;99.958;2022-12-24T00:27:23;101044.44;;;30.21;55.02
74230;BME280;62589;12.568;99.958;2022-12-24T00:29:50;101058.72;;;30.23;55.24
74230;BME280;62589;12.568;99.958;2022-12-24T00:32:16;101054.88;;;30.27;55.13
74230;BME280;62589;12.568;99.958;2022-12-24T00:34:42;101060.13;;;30.32;55.17
74230;BME280;62589;12.568;99.958;2022-12-24T00:37:09;101066.16;;;30.38;55.34
74230;BME280;62589;12.568;99.958;2022-12-24T00:39:35;101071.88;;;30.45;55.15
74230;BME280;62589;12.568;99.958;2022-12-24T00:42:01;101074.00;;;30.52;55.18
74230;BME280;62589;12.568;99.958;2022-12-24T00:44:28;101074.59;;;30.61;55.20
74230;BME280;62589;12.568;99.958;2022-12-24T00:46:54;101087.00;;;30.67;55.33
74230;BME280;62589;12.568;99.958;2022-12-24T00:49:20;101089.16;;;30.77;54.93
74230;BME280;62589;12.568;99.958;2022-12-24T00:51:47;101093.69;;;30.85;55.12
74230;BME280;62589;12.568;99.958;2022-12-24T00:54:13;101093.03;;;30.92;54.79
74230;BME280;62589;12.568;99.958;2022-12-24T00:56:40;101092.78;;;31.00;54.67
74230;BME280;62589;12.568;99.958;2022-12-24T00:59:06;101104.44;;;31.09;54.74
74230;BME280;62589;12.568;99.958;2022-12-24T01:01:33;101107.78;;;31.19;54.25
74230;BME280;62589;12.568;99.958;2022-12-24T01:04:00;101113.13;;;31.27;53.96
74230;BME280;62589;12.568;99.958;2022-12-24T01:06:39;101115.28;;;31.37;53.31
74230;BME280;62589;12.568;99.958;2022-12-24T01:09:06;101120.59;;;31.46;53.13
74230;BME280;62589;12.568;99.958;2022-12-24T01:11:32;101125.09;;;31.54;53.06
74230;BME280;62589;12.568;99.958;2022-12-24T01:13:59;101130.00;;;31.64;52.53
74230;BME280;62589;12.568;99.958;2022-12-24T01:16:25;101132.94;;;31.71;52.53
74230;BME280;62589;12.568;99.958;2022-12-24T01:18:52;101134.66;;;31.80;52.44
74230;BME280;62589;12.568;99.958;2022-12-24T01:21:19;101141.91;;;31.88;52.14
74230;BME280;62589;12.568;99.958;2022-12-24T01:23:45;101141.31;;;31.98;51.85
74230;BME280;62589;12.568;99.958;2022-12-24T01:26:11;101141.81;;;32.07;51.64
74230;BME280;62589;12.568;99.958;2022-12-24T01:28:38;101152.31;;;32.17;51.19
74230;BME280;62589;12.568;99.958;2022-12-24T01:31:15;101150.81;;;32.23;50.79
74230;BME280;62589;12.568;99.958;2022-12-24T01:33:42;101165.69;;;32.34;50.83
74230;BME280;62589;12.568;99.958;2022-12-24T01:36:10;101166.59;;;32.42;51.08
74230;BME280;62589;12.568;99.958;2022-12-24T01:38:37;101171.84;;;32.51;50.98
74230;BME280;62589;12.568;99.958;2022-12-24T01:41:04;101169.59;;;32.60;50.47
74230;BME280;62589;12.568;99.958;2022-12-24T01:43:50;101173.31;;;32.71;50.41
74230;BME280;62589;12.568;99.958;2022-12-24T01:46:29;101177.81;;;32.79;50.04
74230;BME280;62589;12.568;99.958;2022-12-24T01:49:01;101177.53;;;32.88;50.17
74230;BME280;62589;12.568;99.958;2022-12-24T01:51:39;101188.03;;;33.01;50.06
74230;BME280;62589;12.568;99.958;2022-12-24T01:54:27;101188.13;;;33.12;49.32
74230;BME280;62589;12.568;99.958;2022-12-24T01:57:06;101192.56;;;33.17;49.33
74230;BME280;62589;12.568;99.958;2022-12-24T01:59:36;101194.69;;;33.27;49.40
74230;BME280;62589;12.568;99.958;2022-12-24T02:02:03;101198.72;;;33.33;48.76
74230;BME280;62589;12.568;99.958;2022-12-24T02:07:27;101202.16;;;33.56;48.68
74230;BME280;62589;12.568;99.958;2022-12-24T02:09:57;101205.44;;;33.65;48.70
74230;BME280;62589;12.568;99.958;2022-12-24T02:12:25;101205.09;;;33.74;48.44
74230;BME280;62589;12.568;99.958;2022-12-24T02:14:52;101204.44;;;33.84;48.21
74230;BME280;62589;12.568;99.958;2022-12-24T02:26:09;101214.28;;;34.22;44.40
74230;BME280;62589;12.568;99.958;2022-12-24T02:32:04;101213.25;;;34.41;43.15
74230;BME280;62589;12.568;99.958;2022-12-24T02:34:43;101208.88;;;34.43;43.38
74230;BME280;62589;12.568;99.958;2022-12-24T02:37:25;101218.13;;;34.58;43.31
74230;BME280;62589;12.568;99.958;2022-12-24T02:40:13;101218.19;;;34.69;42.72
74230;BME280;62589;12.568;99.958;2022-12-24T02:42:45;101221.78;;;34.69;42.13
74230;BME280;62589;12.568;99.958;2022-12-24T02:45:17;101219.81;;;34.77;42.05
74230;BME280;62589;12.568;99.958;2022-12-24T02:47:45;101224.72;;;34.98;41.10
74230;BME280;62589;12.568;99.958;2022-12-24T02:50:17;101223.09;;;34.93;41.40
74230;BME280;62589;12.568;99.958;2022-12-24T02:52:45;101228.28;;;34.95;41.05
74230;BME280;62589;12.568;99.958;2022-12-24T02:55:38;101219.97;;;35.09;41.07
74230;BME280;62589;12.568;99.958;2022-12-24T03:07:04;101219.66;;;35.35;40.92
74230;BME280;62589;12.568;99.958;2022-12-24T03:12:20;101205.34;;;35.44;40.34
74230;BME280;62589;12.568;99.958;2022-12-24T03:14:49;101212.13;;;35.46;40.43
74230;BME280;62589;12.568;99.958;2022-12-24T03:17:18;101212.94;;;35.47;40.31
74230;BME280;62589;12.568;99.958;2022-12-24T03:19:45;101210.16;;;35.54;40.14
74230;BME280;62589;12.568;99.958;2022-12-24T03:22:12;101212.13;;;35.57;39.93
74230;BME280;62589;12.568;99.958;2022-12-24T03:24:40;101211.34;;;35.64;39.10
74230;BME280;62589;12.568;99.958;2022-12-24T03:27:07;101206.56;;;35.68;38.99
74230;BME280;62589;12.568;99.958;2022-12-24T03:29:35;101216.97;;;35.74;38.80
74230;BME280;62589;12.568;99.958;2022-12-24T03:32:04;101197.81;;;35.76;38.39
74230;BME280;62589;12.568;99.958;2022-12-24T03:34:30;101201.81;;;35.83;37.92
74230;BME280;62589;12.568;99.958;2022-12-24T03:36:57;101202.63;;;35.90;37.60
74230;BME280;62589;12.568;99.958;2022-12-24T03:39:23;101199.44;;;35.92;38.05
74230;BME280;62589;12.568;99.958;2022-12-24T03:41:50;101199.41;;;36.02;37.98
74230;BME280;62589;12.568;99.958;2022-12-24T03:44:16;101196.59;;;36.06;37.90
74230;BME280;62589;12.568;99.958;2022-12-24T03:46:42;101203.41;;;36.12;37.69
74230;BME280;62589;12.568;99.958;2022-12-24T03:49:09;101188.59;;;36.22;37.61
74230;BME280;62589;12.568;99.958;2022-12-24T03:54:09;101197.03;;;35.90;38.56
74230;BME280;62589;12.568;99.958;2022-12-24T03:56:36;101182.22;;;36.00;37.55
74230;BME280;62589;12.568;99.958;2022-12-24T04:00:40;101181.44;;;36.00;37.57
74230;BME280;62589;12.568;99.958;2022-12-24T04:03:07;101181.81;;;36.20;37.62
74230;BME280;62589;12.568;99.958;2022-12-24T04:05:33;101167.03;;;36.33;37.67
74230;BME280;62589;12.568;99.958;2022-12-24T04:07:59;101163.00;;;36.38;37.12
74230;BME280;62589;12.568;99.958;2022-12-24T04:10:26;101161.00;;;36.49;36.80
74230;BME280;62589;12.568;99.958;2022-12-24T04:12:52;101158.16;;;36.60;36.37
74230;BME280;62589;12.568;99.958;2022-12-24T04:15:18;101153.34;;;36.64;35.94
74230;BME280;62589;12.568;99.958;2022-12-24T04:20:30;101143.13;;;35.86;37.84
74230;BME280;62589;12.568;99.958;2022-12-24T04:25:00;101135.94;;;35.99;38.48
74230;BME280;62589;12.568;99.958;2022-12-24T04:27:26;101133.50;;;36.30;37.68
74230;BME280;62589;12.568;99.958;2022-12-24T04:29:53;101129.38;;;36.59;37.28
74230;BME280;62589;12.568;99.958;2022-12-24T04:32:19;101135.31;;;36.79;36.81
74230;BME280;62589;12.568;99.958;2022-12-24T04:34:46;101130.06;;;36.88;36.76
74230;BME280;62589;12.568;99.958;2022-12-24T04:37:12;101127.63;;;36.97;36.47
74230;BME280;62589;12.568;99.958;2022-12-24T04:39:38;101124.78;;;37.04;36.23
74230;BME280;62589;12.568;99.958;2022-12-24T04:42:05;101119.16;;;37.08;36.39
74230;BME280;62589;12.568;99.958;2022-12-24T04:44:31;101119.13;;;37.15;36.10
74230;BME280;62589;12.568;99.958;2022-12-24T04:46:58;101115.94;;;37.13;36.74
74230;BME280;62589;12.568;99.958;2022-12-24T04:49:24;101119.50;;;37.21;36.45
74230;BME280;62589;12.568;99.958;2022-12-24T04:51:50;101111.47;;;37.26;36.31
74230;BME280;62589;12.568;99.958;2022-12-24T04:54:17;101108.22;;;37.35;36.05
74230;BME280;62589;12.568;99.958;2022-12-24T04:56:43;101103.00;;;37.37;36.23
74230;BME280;62589;12.568;99.958;2022-12-24T04:59:10;101099.31;;;37.43;35.95
74230;BME280;62589;12.568;99.958;2022-12-24T05:01:36;101097.31;;;37.44;36.41
74230;BME280;62589;12.568;99.958;2022-12-24T05:04:02;101097.31;;;37.44;35.92
74230;BME280;62589;12.568;99.958;2022-12-24T05:06:31;101092.91;;;37.43;35.18
74230;BME280;62589;12.568;99.958;2022-12-24T05:08:58;101089.28;;;37.46;35.02
74230;BME280;62589;12.568;99.958;2022-12-24T05:11:25;101089.69;;;37.48;34.89
74230;BME280;62589;12.568;99.958;2022-12-24T05:13:51;101085.28;;;37.47;34.96
74230;BME280;62589;12.568;99.958;2022-12-24T05:16:19;101082.47;;;37.50;35.15
74230;BME280;62589;12.568;99.958;2022-12-24T05:18:47;101073.25;;;37.50;35.29
74230;BME280;62589;12.568;99.958;2022-12-24T05:21:16;101073.63;;;37.56;35.44
74230;BME280;62589;12.568;99.958;2022-12-24T05:23:43;101063.63;;;37.55;35.49
74230;BME280;62589;12.568;99.958;2022-12-24T05:29:11;101070.03;;;37.52;35.71
74230;BME280;62589;12.568;99.958;2022-12-24T05:31:37;101067.28;;;37.48;35.93
74230;BME280;62589;12.568;99.958;2022-12-24T05:34:05;101054.88;;;37.45;35.37
74230;BME280;62589;12.568;99.958;2022-12-24T05:36:32;101060.91;;;37.44;35.39
74230;BME280;62589;12.568;99.958;2022-12-24T05:38:59;101056.91;;;37.41;35.32
74230;BME280;62589;12.568;99.958;2022-12-24T05:41:26;101057.31;;;37.43;35.19
74230;BME280;62589;12.568;99.958;2022-12-24T05:43:52;101039.69;;;37.43;34.98
74230;BME280;62589;12.568;99.958;2022-12-24T05:46:20;101045.31;;;37.43;34.92
74230;BME280;62589;12.568;99.958;2022-12-24T05:48:47;101049.28;;;37.45;34.92
74230;BME280;62589;12.568;99.958;2022-12-24T05:51:15;101046.06;;;37.47;34.90
74230;BME280;62589;12.568;99.958;2022-12-24T05:53:48;101040.47;;;37.47;34.74
74230;BME280;62589;12.568;99.958;2022-12-24T05:56:17;101035.69;;;37.44;35.15
74230;BME280;62589;12.568;99.958;2022-12-24T05:58:44;101043.28;;;37.47;35.11
74230;BME280;62589;12.568;99.958;2022-12-24T06:01:12;101029.25;;;37.50;35.00
74230;BME280;62589;12.568;99.958;2022-12-24T06:03:39;101025.22;;;37.52;34.87
74230;BME280;62589;12.568;99.958;2022-12-24T06:06:12;101031.59;;;37.56;34.82
74230;BME280;62589;12.568;99.958;2022-12-24T06:08:40;101019.59;;;37.55;35.07
74230;BME280;62589;12.568;99.958;2022-12-24T06:11:09;101014.75;;;37.59;34.39
74230;BME280;62589;12.568;99.958;2022-12-24T06:13:37;101016.34;;;37.60;34.69
74230;BME280;62589;12.568;99.958;2022-12-24T06:16:05;101008.34;;;37.59;34.42
74230;BME280;62589;12.568;99.958;2022-12-24T06:18:33;101012.34;;;37.61;34.44
74230;BME280;62589;12.568;99.958;2022-12-24T06:21:00;101010.69;;;37.64;34.65
74230;BME280;62589;12.568;99.958;2022-12-24T06:23:29;101007.09;;;37.63;34.47
74230;BME280;62589;12.568;99.958;2022-12-24T06:25:56;101004.28;;;37.63;34.27
74230;BME280;62589;12.568;99.958;2022-12-24T06:28:23;101001.09;;;37.65;33.95
74230;BME280;62589;12.568;99.958;2022-12-24T06:30:50;100994.66;;;37.64;33.62
74230;BME280;62589;12.568;99.958;2022-12-24T06:33:16;100989.06;;;37.64;33.88
74230;BME280;62589;12.568;99.958;2022-12-24T06:35:45;100987.47;;;37.63;33.44
74230;BME280;62589;12.568;99.958;2022-12-24T06:38:11;100989.06;;;37.64;33.66
74230;BME280;62589;12.568;99.958;2022-12-24T06:40:38;100982.28;;;37.65;34.16
74230;BME280;62589;12.568;99.958;2022-12-24T06:43:05;100986.75;;;37.59;34.03
74230;BME280;62589;12.568;99.958;2022-12-24T06:45:31;100982.72;;;37.60;34.35
74230;BME280;62589;12.568;99.958;2022-12-24T06:47:58;100966.75;;;37.57;33.46
74230;BME280;62589;12.568;99.958;2022-12-24T06:50:25;100959.97;;;37.55;33.83
74230;BME280;62589;12.568;99.958;2022-12-24T06:52:52;100956.38;;;37.54;34.25
74230;BME280;62589;12.568;99.958;2022-12-24T06:55:18;100945.56;;;37.56;34.15
74230;BME280;62589;12.568;99.958;2022-12-24T06:57:45;100946.00;;;37.51;34.04
74230;BME280;62589;12.568;99.958;2022-12-24T07:00:12;100937.22;;;37.49;33.51
74230;BME280;62589;12.568;99.958;2022-12-24T07:02:39;100930.81;;;37.48;33.96
74230;BME280;62589;12.568;99.958;2022-12-24T07:05:07;100922.88;;;37.43;33.84
74230;BME280;62589;12.568;99.958;2022-12-24T07:07:39;100926.47;;;37.44;33.84
74230;BME280;62589;12.568;99.958;2022-12-24T07:10:07;100918.94;;;37.41;33.93
74230;BME280;62589;12.568;99.958;2022-12-24T07:12:34;100921.34;;;37.39;33.64
74230;BME280;62589;12.568;99.958;2022-12-24T07:15:00;100915.78;;;37.35;34.12
74230;BME280;62589;12.568;99.958;2022-12-24T07:17:26;100918.16;;;37.37;33.79
74230;BME280;62589;12.568;99.958;2022-12-24T07:19:53;100911.81;;;37.33;34.16
74230;BME280;62589;12.568;99.958;2022-12-24T07:22:19;100913.00;;;37.32;33.96
74230;BME280;62589;12.568;99.958;2022-12-24T07:24:46;100913.44;;;37.30;34.47
74230;BME280;62589;12.568;99.958;2022-12-24T07:27:12;100907.81;;;37.30;34.59
74230;BME280;62589;12.568;99.958;2022-12-24T07:29:38;100905.44;;;37.29;34.89
74230;BME280;62589;12.568;99.958;2022-12-24T07:32:10;100904.63;;;37.32;34.44
74230;BME280;62589;12.568;99.958;2022-12-24T07:34:37;100910.25;;;37.28;34.34
74230;BME280;62589;12.568;99.958;2022-12-24T07:37:05;100902.25;;;37.27;34.90
74230;BME280;62589;12.568;99.958;2022-12-24T07:39:32;100895.91;;;37.23;34.81
74230;BME280;62589;12.568;99.958;2022-12-24T07:41:58;100899.06;;;37.25;35.46
74230;BME280;62589;12.568;99.958;2022-12-24T07:44:25;100897.09;;;37.22;35.41
74230;BME280;62589;12.568;99.958;2022-12-24T07:46:51;100890.28;;;37.23;35.45
74230;BME280;62589;12.568;99.958;2022-12-24T07:49:18;100893.50;;;37.21;35.12
74230;BME280;62589;12.568;99.958;2022-12-24T07:51:44;100884.38;;;37.13;35.17
74230;BME280;62589;12.568;99.958;2022-12-24T07:54:11;100884.38;;;37.13;35.88
74230;BME280;62589;12.568;99.958;2022-12-24T07:56:37;100880.41;;;37.11;35.55
74230;BME280;62589;12.568;99.958;2022-12-24T07:59:03;100879.59;;;37.10;35.59
74230;BME280;62589;12.568;99.958;2022-12-24T08:01:30;100884.03;;;37.08;35.56
74230;BME280;62589;12.568;99.958;2022-12-24T08:03:56;100878.44;;;37.08;35.43
74230;BME280;62589;12.568;99.958;2022-12-24T08:06:23;100875.66;;;37.04;35.55
74230;BME280;62589;12.568;99.958;2022-12-24T08:08:49;100868.47;;;37.03;35.50
74230;BME280;62589;12.568;99.958;2022-12-24T08:11:16;100876.06;;;37.03;35.61
74230;BME280;62589;12.568;99.958;2022-12-24T08:13:42;100879.28;;;37.01;35.78
74230;BME280;62589;12.568;99.958;2022-12-24T08:16:08;100872.97;;;36.97;35.80
74230;BME280;62589;12.568;99.958;2022-12-24T08:18:35;100875.03;;;36.90;35.81
74230;BME280;62589;12.568;99.958;2022-12-24T08:21:01;100876.63;;;36.87;35.84
74230;BME280;62589;12.568;99.958;2022-12-24T08:23:28;100881.09;;;36.81;35.62
74230;BME280;62589;12.568;99.958;2022-12-24T08:25:54;100872.38;;;36.75;35.48
74230;BME280;62589;12.568;99.958;2022-12-24T08:28:20;100887.56;;;36.71;36.02
74230;BME280;62589;12.568;99.958;2022-12-24T08:30:49;100874.00;;;36.66;36.15
74230;BME280;62589;12.568;99.958;2022-12-24T08:33:16;100878.38;;;36.67;35.95
74230;BME280;62589;12.568;99.958;2022-12-24T08:35:50;100880.41;;;36.63;36.63
74230;BME280;62589;12.568;99.958;2022-12-24T08:38:17;100887.69;;;36.57;36.70
74230;BME280;62589;12.568;99.958;2022-12-24T08:40:43;100879.28;;;36.57;36.96
74230;BME280;62589;12.568;99.958;2022-12-24T08:43:14;100884.09;;;36.53;36.51
74230;BME280;62589;12.568;99.958;2022-12-24T08:45:41;100880.53;;;36.48;36.21
74230;BME280;62589;12.568;99.958;2022-12-24T08:48:08;100878.97;;;36.44;36.93
74230;BME280;62589;12.568;99.958;2022-12-24T08:50:38;100884.97;;;36.42;36.54
74230;BME280;62589;12.568;99.958;2022-12-24T08:53:04;100883.78;;;36.40;36.91
74230;BME280;62589;12.568;99.958;2022-12-24T08:55:31;100881.41;;;36.38;37.12
74230;BME280;62589;12.568;99.958;2022-12-24T08:57:59;100885.44;;;36.34;37.14
74230;BME280;62589;12.568;99.958;2022-12-24T09:00:26;100889.44;;;36.33;37.45
74230;BME280;62589;12.568;99.958;2022-12-24T09:02:52;100889.06;;;36.27;37.02
74230;BME280;62589;12.568;99.958;2022-12-24T09:05:19;100890.28;;;36.26;36.96
74230;BME280;62589;12.568;99.958;2022-12-24T09:07:45;100891.06;;;36.27;37.19
74230;BME280;62589;12.568;99.958;2022-12-24T09:10:12;100896.66;;;36.23;37.40
74230;BME280;62589;12.568;99.958;2022-12-24T09:12:38;100893.88;;;36.23;37.57
74230;BME280;62589;12.568;99.958;2022-12-24T09:15:05;100890.69;;;36.17;38.57
74230;BME280;62589;12.568;99.958;2022-12-24T09:17:34;100891.13;;;36.16;38.26
74230;BME280;62589;12.568;99.958;2022-12-24T09:20:01;100885.56;;;36.12;38.70
74230;BME280;62589;12.568;99.958;2022-12-24T09:22:28;100887.19;;;36.06;39.06
74230;BME280;62589;12.568;99.958;2022-12-24T09:24:54;100888.78;;;36.04;38.61
74230;BME280;62589;12.568;99.958;2022-12-24T09:27:21;100884.81;;;36.01;38.27
74230;BME280;62589;12.568;99.958;2022-12-24T09:29:49;100894.81;;;35.99;37.99
74230;BME280;62589;12.568;99.958;2022-12-24T09:32:15;100885.63;;;35.98;38.55
74230;BME280;62589;12.568;99.958;2022-12-24T09:34:42;100889.66;;;35.94;38.65
74230;BME280;62589;12.568;99.958;2022-12-24T09:37:08;100893.66;;;35.89;38.91
74230;BME280;62589;12.568;99.958;2022-12-24T09:39:35;100889.28;;;35.88;38.94
74230;BME280;62589;12.568;99.958;2022-12-24T09:44:57;100897.28;;;35.83;39.34
74230;BME280;62589;12.568;99.958;2022-12-24T09:47:53;100894.50;;;35.83;39.18
74230;BME280;62589;12.568;99.958;2022-12-24T09:50:39;100898.91;;;35.76;39.57
74230;BME280;62589;12.568;99.958;2022-12-24T09:53:17;100902.91;;;35.72;39.10
74230;BME280;62589;12.568;99.958;2022-12-24T09:55:49;100900.91;;;35.69;39.17
74230;BME280;62589;12.568;99.958;2022-12-24T10:01:13;100925.66;;;35.60;39.49
74230;BME280;62589;12.568;99.958;2022-12-24T10:03:45;100915.31;;;35.57;38.97
74230;BME280;62589;12.568;99.958;2022-12-24T10:09:35;100930.47;;;35.56;39.22
74230;BME280;62589;12.568;99.958;2022-12-24T10:15:30;100932.50;;;35.48;39.45
74230;BME280;62589;12.568;99.958;2022-12-24T10:18:21;100932.91;;;35.46;39.33
74230;BME280;62589;12.568;99.958;2022-12-24T10:21:14;100937.69;;;35.42;39.28
74230;BME280;62589;12.568;99.958;2022-12-24T10:23:59;100940.50;;;35.35;39.29
74230;BME280;62589;12.568;99.958;2022-12-24T10:26:53;100935.72;;;35.29;39.75
74230;BME280;62589;12.568;99.958;2022-12-24T10:29:27;100942.47;;;35.21;39.80
74230;BME280;62589;12.568;99.958;2022-12-24T10:34:58;100948.06;;;35.13;40.17
74230;BME280;62589;12.568;99.958;2022-12-24T10:37:28;100958.47;;;35.09;39.77
74230;BME280;62589;12.568;99.958;2022-12-24T10:39:57;100951.28;;;35.08;39.51
74230;BME280;62589;12.568;99.958;2022-12-24T10:42:34;100954.47;;;35.03;39.68
74230;BME280;62589;12.568;99.958;2022-12-24T10:45:05;100949.69;;;35.00;39.53
74230;BME280;62589;12.568;99.958;2022-12-24T10:47:33;100947.28;;;34.95;39.81
74230;BME280;62589;12.568;99.958;2022-12-24T10:50:09;100956.03;;;34.94;40.58
74230;BME280;62589;12.568;99.958;2022-12-24T10:52:41;100958.47;;;34.88;40.87
74230;BME280;62589;12.568;99.958;2022-12-24T10:55:29;100962.84;;;34.86;40.36
74230;BME280;62589;12.568;99.958;2022-12-24T10:58:04;100966.41;;;34.79;40.53
74230;BME280;62589;12.568;99.958;2022-12-24T11:00:31;100977.53;;;34.75;40.54
74230;BME280;62589;12.568;99.958;2022-12-24T11:06:03;100974.75;;;34.68;41.04
74230;BME280;62589;12.568;99.958;2022-12-24T11:08:31;100977.94;;;34.67;41.15
74230;BME280;62589;12.568;99.958;2022-12-24T11:11:05;100973.94;;;34.61;41.13
74230;BME280;62589;12.568;99.958;2022-12-24T11:13:38;100979.09;;;34.59;41.02
74230;BME280;62589;12.568;99.958;2022-12-24T11:19:16;100975.50;;;34.55;40.94
74230;BME280;62589;12.568;99.958;2022-12-24T11:21:43;100973.50;;;34.52;41.10
74230;BME280;62589;12.568;99.958;2022-12-24T11:24:29;100976.72;;;34.50;41.28
74230;BME280;62589;12.568;99.958;2022-12-24T11:27:23;100980.69;;;34.45;40.91
74230;BME280;62589;12.568;99.958;2022-12-24T11:30:18;100977.06;;;34.41;41.25
74230;BME280;62589;12.568;99.958;2022-12-24T11:32:47;100981.44;;;34.35;40.69
74230;BME280;62589;12.568;99.958;2022-12-24T11:35:20;100982.63;;;34.34;41.29
74230;BME280;62589;12.568;99.958;2022-12-24T11:40:46;100982.22;;;34.32;41.14
74230;BME280;62589;12.568;99.958;2022-12-24T11:43:19;100996.53;;;34.27;41.21
74230;BME280;62589;12.568;99.958;2022-12-24T11:45:55;100990.94;;;34.24;41.16
74230;BME280;62589;12.568;99.958;2022-12-24T11:48:28;100995.69;;;34.20;41.58
74230;BME280;62589;12.568;99.958;2022-12-24T11:51:03;101000.44;;;34.16;41.60
74230;BME280;62589;12.568;99.958;2022-12-24T11:56:53;101009.19;;;34.14;41.34
74230;BME280;62589;12.568;99.958;2022-12-24T11:59:33;101013.16;;;34.13;41.07
74230;BME280;62589;12.568;99.958;2022-12-24T12:05:07;101015.13;;;34.09;41.44
74230;BME280;62589;12.568;99.958;2022-12-24T12:07:36;101017.53;;;34.07;41.66
74230;BME280;62589;12.568;99.958;2022-12-24T12:10:20;101020.34;;;34.07;42.04
74230;BME280;62589;12.568;99.958;2022-12-24T12:12:58;101020.31;;;34.03;41.81
74230;BME280;62589;12.568;99.958;2022-12-24T12:15:34;101013.53;;;34.01;42.30
74230;BME280;62589;12.568;99.958;2022-12-24T12:18:23;101021.09;;;34.04;42.00
74230;BME280;62589;12.568;99.958;2022-12-24T12:20:59;101028.63;;;33.96;42.46
74230;BME280;62589;12.568;99.958;2022-12-24T12:23:30;101039.44;;;34.08;41.78
74230;BME280;62589;12.568;99.958;2022-12-24T12:29:22;101044.94;;;33.98;41.77
74230;BME280;62589;12.568;99.958;2022-12-24T12:31:47;101044.50;;;33.92;41.95
74230;BME280;62589;12.568;99.958;2022-12-24T12:34:20;101054.06;;;33.88;42.65
74230;BME280;62589;12.568;99.958;2022-12-24T12:36:56;101044.09;;;33.87;42.14
74230;BME280;62589;12.568;99.958;2022-12-24T12:39:25;101046.09;;;33.86;42.45
74230;BME280;62589;12.568;99.958;2022-12-24T12:56:48;101067.81;;;33.70;42.53
74230;BME280;62589;12.568;99.958;2022-12-24T12:59:28;101073.38;;;33.66;42.27
74230;BME280;62589;12.568;99.958;2022-12-24T13:08:18;101084.91;;;33.65;42.59
74230;BME280;62589;12.568;99.958;2022-12-24T13:13:49;101087.59;;;33.54;42.77
74230;BME280;62589;12.568;99.958;2022-12-24T13:16:44;101103.91;;;33.56;42.54
74230;BME280;62589;12.568;99.958;2022-12-24T13:22:16;101103.03;;;33.48;42.72
74230;BME280;62589;12.568;99.958;2022-12-24T13:24:52;101103.41;;;33.46;42.93
74230;BME280;62589;12.568;99.958;2022-12-24T13:27:31;101109.78;;;33.47;42.96
74230;BME280;62589;12.568;99.958;2022-12-24T13:30:05;101112.94;;;33.42;42.76
74230;BME280;62589;12.568;99.958;2022-12-24T13:32:55;101117.69;;;33.38;43.21
74230;BME280;62589;12.568;99.958;2022-12-24T13:35:31;101110.50;;;33.37;42.95
74230;BME280;62589;12.568;99.958;2022-12-24T13:47:04;101120.38;;;33.31;43.66
74230;BME280;62589;12.568;99.958;2022-12-24T13:49:49;101118.38;;;33.28;43.69
74230;BME280;62589;12.568;99.958;2022-12-24T13:52:21;101131.44;;;33.24;43.36
74230;BME280;62589;12.568;99.958;2022-12-24T13:55:06;101124.31;;;33.26;43.78
74230;BME280;62589;12.568;99.958;2022-12-24T13:57:43;101124.22;;;33.19;43.81
74230;BME280;62589;12.568;99.958;2022-12-24T14:09:21;101148.81;;;33.13;43.59
74230;BME280;62589;12.568;99.958;2022-12-24T14:12:15;101134.91;;;33.13;43.47
74230;BME280;62589;12.568;99.958;2022-12-24T14:14:55;101144.00;;;33.10;43.41
74230;BME280;62589;12.568;99.958;2022-12-24T14:17:24;101154.28;;;33.06;43.45
74230;BME280;62589;12.568;99.958;2022-12-24T14:19:56;101157.06;;;33.06;43.30
74230;BME280;62589;12.568;99.958;2022-12-24T14:22:39;101165.03;;;33.04;43.42
74230;BME280;62589;12.568;99.958;2022-12-24T14:25:17;101156.25;;;33.02;43.64
74230;BME280;62589;12.568;99.958;2022-12-24T14:27:48;101156.25;;;33.02;43.26
74230;BME280;62589;12.568;99.958;2022-12-24T14:30:20;101165.34;;;32.99;43.15
74230;BME280;62589;12.568;99.958;2022-12-24T14:32:48;101162.94;;;32.98;43.22
74230;BME280;62589;12.568;99.958;2022-12-24T14:35:27;101164.50;;;32.95;43.87
74230;BME280;62589;12.568;99.958;2022-12-24T14:38:07;101163.72;;;32.95;43.48
74230;BME280;62589;12.568;99.958;2022-12-24T14:40:59;101168.03;;;32.92;43.27
74230;BME280;62589;12.568;99.958;2022-12-24T14:46:47;101173.66;;;32.96;43.61
74230;BME280;62589;12.568;99.958;2022-12-24T14:49:49;101176.38;;;32.92;43.82
74230;BME280;62589;12.568;99.958;2022-12-24T14:52:28;101174.31;;;32.86;43.92
74230;BME280;62589;12.568;99.958;2022-12-24T14:54:59;101175.13;;;32.86;44.02
74230;BME280;62589;12.568;99.958;2022-12-24T14:57:26;101173.91;;;32.84;44.00